createdAt,value
2023-05-12T00:00:52.105Z,159.27
2023-05-12T00:03:20.153Z,140.50
2023-05-12T00:05:47.936Z,126.50
2023-05-12T00:08:17.243Z,123.03
2023-05-12T00:10:45.307Z,214.73
2023-05-12T00:13:13.195Z,191.97
2023-05-12T00:15:41.416Z,161.37
2023-05-12T00:18:09.712Z,196.70
2023-05-12T00:20:38.412Z,181.10
2023-05-12T00:23:06.242Z,157.27
2023-05-12T00:25:35.439Z,171.57
2023-05-12T00:28:03.275Z,174.40
2023-05-12T00:30:31.151Z,156.57
2023-05-12T00:32:58.990Z,174.48
2023-05-12T00:35:27.031Z,175.52
2023-05-12T00:37:54.852Z,201.50
2023-05-12T00:40:22.747Z,206.63
2023-05-12T00:42:51.918Z,189.70
2023-05-12T00:45:20.379Z,188.25
2023-05-12T00:47:48.695Z,188.30
2023-05-12T00:50:18.350Z,161.48
2023-05-12T00:52:46.865Z,172.50
2023-05-12T00:55:15.499Z,165.13
2023-05-12T00:57:44.235Z,160.43
2023-05-12T01:00:15.444Z,152.17
2023-05-12T01:02:45.740Z,168.43
2023-05-12T01:05:14.074Z,168.77
2023-05-12T01:07:42.525Z,166.37
2023-05-12T01:10:21.465Z,169.50
2023-05-12T01:12:49.647Z,174.93
2023-05-12T01:15:19.946Z,199.77
2023-05-12T01:18:01.725Z,179.05
2023-05-12T01:20:32.954Z,169.48
2023-05-12T01:23:02.318Z,160.20
2023-05-12T01:25:34.164Z,167.03
2023-05-12T01:28:06.597Z,191.20
2023-05-12T01:30:37.801Z,195.23
2023-05-12T01:33:05.974Z,206.30
2023-05-12T01:35:34.164Z,190.27
2023-05-12T01:38:03.175Z,189.27
2023-05-12T01:40:33.879Z,176.40
2023-05-12T01:43:01.799Z,186.25
2023-05-12T01:45:34.835Z,177.90
2023-05-12T01:48:02.970Z,186.20
2023-05-12T01:50:31.420Z,177.37
2023-05-12T01:53:00.174Z,172.65
2023-05-12T01:55:28.557Z,185.75
2023-05-12T01:57:58.376Z,179.60
2023-05-12T02:00:27.172Z,157.03
2023-05-12T02:02:58.988Z,185.47
2023-05-12T02:05:27.027Z,166.93
2023-05-12T02:07:55.455Z,152.43
2023-05-12T02:10:23.361Z,164.57
2023-05-12T02:12:51.249Z,156.70
2023-05-12T02:15:19.259Z,163.13
2023-05-12T02:17:50.263Z,180.47
2023-05-12T02:20:20.887Z,177.20
2023-05-12T02:22:48.851Z,158.93
2023-05-12T02:25:16.925Z,162.47
2023-05-12T02:27:45.351Z,174.33
2023-05-12T02:30:15.079Z,160.83
2023-05-12T02:32:42.983Z,161.57
2023-05-12T02:35:11.017Z,159.03
2023-05-12T02:37:41.460Z,169.03
2023-05-12T02:40:12.509Z,155.63
2023-05-12T02:42:41.335Z,147.47
2023-05-12T02:45:10.778Z,167.27
2023-05-12T02:47:38.724Z,151.73
2023-05-12T02:50:09.580Z,167.70
2023-05-12T02:52:37.584Z,160.77
2023-05-12T02:55:08.346Z,149.97
2023-05-12T02:57:36.338Z,152.53
2023-05-12T03:00:06.221Z,146.13
2023-05-12T03:02:38.949Z,170.35
2023-05-12T03:05:09.531Z,148.17
2023-05-12T03:07:38.232Z,136.27
2023-05-12T03:10:10.540Z,138.53
2023-05-12T03:12:38.453Z,149.93
2023-05-12T03:15:07.813Z,131.93
2023-05-12T03:17:36.623Z,134.10
2023-05-12T03:20:06.409Z,129.40
2023-05-12T03:22:35.078Z,136.57
2023-05-12T03:25:04.917Z,132.87
2023-05-12T03:27:34.620Z,135.03
2023-05-12T03:30:05.021Z,126.05
2023-05-12T03:32:35.971Z,145.00
2023-05-12T03:35:04.647Z,130.80
2023-05-12T03:37:32.916Z,131.20
2023-05-12T03:40:00.922Z,146.20
2023-05-12T03:42:28.768Z,131.33
2023-05-12T03:44:58.134Z,119.60
2023-05-12T03:47:28.428Z,121.70
2023-05-12T03:49:57.339Z,114.57
2023-05-12T03:52:25.464Z,116.43
2023-05-12T03:54:53.650Z,109.17
2023-05-12T03:57:21.390Z,102.30
2023-05-12T03:59:49.278Z,104.30
2023-05-12T04:02:18.411Z,104.77
2023-05-12T04:04:46.852Z,99.27
2023-05-12T04:07:15.927Z,89.87
2023-05-12T04:09:46.603Z,89.37
2023-05-12T04:12:14.468Z,85.77
2023-05-12T04:14:43.434Z,87.23
2023-05-12T04:17:11.359Z,84.37
2023-05-12T04:19:40.587Z,83.07
2023-05-12T04:22:08.318Z,78.63
2023-05-12T04:24:37.639Z,83.87
2023-05-12T04:27:06.298Z,77.30
2023-05-12T04:29:35.619Z,72.03
2023-05-12T04:32:04.121Z,78.00
2023-05-12T04:34:32.133Z,72.87
2023-05-12T04:37:01.902Z,72.80
2023-05-12T04:39:30.855Z,70.27
2023-05-12T04:42:00.931Z,67.97
2023-05-12T04:44:29.718Z,61.67
2023-05-12T04:46:58.083Z,60.10
2023-05-12T04:49:26.217Z,53.23
2023-05-12T04:51:53.955Z,49.37
2023-05-12T04:54:24.167Z,47.23
2023-05-12T04:56:52.131Z,51.60
2023-05-12T04:59:20.050Z,40.47
2023-05-12T05:01:50.955Z,43.40
2023-05-12T05:04:19.912Z,42.87
2023-05-12T05:06:47.826Z,39.20
2023-05-12T05:09:16.521Z,36.50
2023-05-12T05:11:46.812Z,38.78
2023-05-12T05:14:15.623Z,37.08
2023-05-12T05:16:44.430Z,34.30
2023-05-12T05:19:21.627Z,34.90
2023-05-12T05:21:58.147Z,30.37
2023-05-12T05:24:26.204Z,31.43
2023-05-12T05:26:56.558Z,35.83
2023-05-12T05:29:24.501Z,36.67
2023-05-12T05:31:52.734Z,30.48
2023-05-12T05:34:20.676Z,31.17
2023-05-12T05:36:48.825Z,31.13
2023-05-12T05:39:17.268Z,28.33
2023-05-12T05:41:45.151Z,30.67
2023-05-12T05:44:14.347Z,29.67
2023-05-12T05:46:42.373Z,29.08
2023-05-12T05:49:10.340Z,29.63
2023-05-12T05:51:38.196Z,28.80
2023-05-12T05:54:06.128Z,27.90
2023-05-12T05:56:35.889Z,24.20
2023-05-12T05:59:05.120Z,24.92
2023-05-12T06:01:34.522Z,25.88
2023-05-12T06:04:02.590Z,24.90
2023-05-12T06:06:31.368Z,26.42
2023-05-12T06:09:00.132Z,28.00
2023-05-12T06:11:28.134Z,24.63
2023-05-12T06:13:55.930Z,26.23
2023-05-12T06:16:23.748Z,21.52
2023-05-12T06:18:52.850Z,22.70
2023-05-12T06:21:20.725Z,21.92
2023-05-12T06:23:48.852Z,23.13
2023-05-12T06:26:16.970Z,25.02
2023-05-12T06:28:44.848Z,23.05
2023-05-12T06:31:13.309Z,18.83
2023-05-12T06:33:41.161Z,25.92
2023-05-12T06:36:10.841Z,22.48
2023-05-12T06:38:38.700Z,23.65
2023-05-12T06:41:06.617Z,21.30
2023-05-12T06:43:34.403Z,20.02
2023-05-12T06:46:04.859Z,18.50
2023-05-12T06:48:33.048Z,18.20
2023-05-12T06:51:00.915Z,18.60
2023-05-12T06:53:32.325Z,15.52
2023-05-12T06:56:00.323Z,17.60
2023-05-12T06:58:28.095Z,14.77
2023-05-12T07:00:56.154Z,14.40
2023-05-12T07:03:24.030Z,14.63
2023-05-12T07:05:52.116Z,15.38
2023-05-12T07:08:20.081Z,14.95
2023-05-12T07:10:49.357Z,13.63
2023-05-12T07:13:17.305Z,12.68
2023-05-12T07:15:45.335Z,13.32
2023-05-12T07:18:13.806Z,11.18
2023-05-12T07:20:41.888Z,9.82
2023-05-12T07:23:09.909Z,9.48
2023-05-12T07:25:38.003Z,8.73
2023-05-12T07:28:07.528Z,8.45
2023-05-12T07:30:36.391Z,9.13
2023-05-12T07:33:04.552Z,8.27
2023-05-12T07:35:32.454Z,6.90
2023-05-12T07:38:00.248Z,7.03
2023-05-12T07:40:28.097Z,6.97
2023-05-12T07:42:55.956Z,6.53
2023-05-12T07:45:25.198Z,7.72
2023-05-12T07:47:53.052Z,6.03
2023-05-12T07:50:21.453Z,5.18
2023-05-12T07:52:50.719Z,5.95
2023-05-12T07:55:21.183Z,7.80
2023-05-12T07:57:49.937Z,7.10
2023-05-12T08:00:18.734Z,5.43
2023-05-12T08:02:48.231Z,6.85
2023-05-12T08:05:16.348Z,6.28
2023-05-12T08:07:44.208Z,6.18
2023-05-12T08:10:13.282Z,6.13
2023-05-12T08:12:42.159Z,6.85
2023-05-12T08:15:10.583Z,5.95
2023-05-12T08:17:38.447Z,5.05
2023-05-12T08:20:09.595Z,4.93
2023-05-12T08:22:37.559Z,5.82
2023-05-12T08:25:06.982Z,4.95
2023-05-12T08:27:34.890Z,6.18
2023-05-12T08:30:02.689Z,4.53
2023-05-12T08:32:30.656Z,4.38
2023-05-12T08:34:58.613Z,5.93
2023-05-12T08:37:28.198Z,4.22
2023-05-12T08:39:56.641Z,4.40
2023-05-12T08:42:39.096Z,5.10
2023-05-12T08:45:10.681Z,5.30
2023-05-12T08:47:41.467Z,4.65
2023-05-12T08:50:12.623Z,4.18
2023-05-12T08:52:42.043Z,4.10
2023-05-12T08:55:12.204Z,4.65
2023-05-12T08:57:45.310Z,4.30
2023-05-12T09:00:15.261Z,4.43
2023-05-12T09:02:53.116Z,3.75
2023-05-12T09:05:23.348Z,4.78
2023-05-12T09:07:55.800Z,4.22
2023-05-12T09:10:35.120Z,3.70
2023-05-12T09:13:12.827Z,5.60
2023-05-12T09:15:47.170Z,3.65
2023-05-12T09:18:14.962Z,3.83
2023-05-12T09:20:43.142Z,4.07
2023-05-12T09:23:18.360Z,3.42
2023-05-12T09:25:49.612Z,3.40
2023-05-12T09:28:17.934Z,4.20
2023-05-12T09:30:45.869Z,3.05
2023-05-12T09:33:14.226Z,5.07
2023-05-12T09:35:45.328Z,3.28
2023-05-12T09:38:18.707Z,3.30
2023-05-12T09:40:47.092Z,3.58
2023-05-12T09:43:16.366Z,4.00
2023-05-12T09:45:46.217Z,5.60
2023-05-12T09:48:14.466Z,3.67
2023-05-12T09:50:48.751Z,4.68
2023-05-12T09:53:20.333Z,4.78
2023-05-12T09:55:49.156Z,3.33
2023-05-12T09:58:19.384Z,3.95
2023-05-12T10:03:22.902Z,3.85
2023-05-12T10:05:57.496Z,4.80
2023-05-12T10:08:32.194Z,4.43
2023-05-12T10:11:04.621Z,3.35
2023-05-12T10:13:34.332Z,4.15
2023-05-12T10:16:03.772Z,3.78
2023-05-12T10:18:33.812Z,3.83
2023-05-12T10:21:03.197Z,4.55
2023-05-12T10:23:35.943Z,3.85
2023-05-12T10:26:06.475Z,5.32
2023-05-12T10:28:34.280Z,3.78
2023-05-12T10:31:06.490Z,4.25
2023-05-12T10:33:34.685Z,3.53
2023-05-12T10:36:03.818Z,4.32
2023-05-12T10:38:37.486Z,4.63
2023-05-12T10:41:06.968Z,4.57
2023-05-12T10:43:43.510Z,4.75
2023-05-12T10:46:18.069Z,4.43
2023-05-12T10:48:55.527Z,4.70
2023-05-12T10:51:28.173Z,5.75
2023-05-12T10:54:03.684Z,4.03
2023-05-12T10:56:44.116Z,3.88
2023-05-12T10:59:17.352Z,3.65
2023-05-12T11:02:02.821Z,4.40
2023-05-12T11:04:46.327Z,6.35
2023-05-12T11:07:17.704Z,4.95
2023-05-12T11:09:56.584Z,4.63
2023-05-12T11:12:27.223Z,4.10
2023-05-12T11:14:55.362Z,5.47
2023-05-12T11:17:23.418Z,5.25
2023-05-12T11:19:52.510Z,6.20
2023-05-12T11:22:23.585Z,5.75
2023-05-12T11:24:53.246Z,5.03
2023-05-12T11:27:23.516Z,7.60
2023-05-12T11:29:59.344Z,7.13
2023-05-12T11:32:28.285Z,6.45
2023-05-12T11:34:56.194Z,5.70
2023-05-12T11:37:24.195Z,8.13
2023-05-12T11:39:53.397Z,6.55
2023-05-12T11:42:23.465Z,11.30
2023-05-12T11:44:54.482Z,10.77
2023-05-12T11:47:22.294Z,5.10
2023-05-12T11:49:52.990Z,5.13
2023-05-12T11:52:23.983Z,5.80
2023-05-12T11:54:58.749Z,7.10
2023-05-12T12:00:01.013Z,5.90
2023-05-12T12:02:29.414Z,6.60
2023-05-12T12:04:57.929Z,6.20
2023-05-12T12:07:30.283Z,5.57
2023-05-12T12:10:10.584Z,4.97
2023-05-12T12:12:38.525Z,5.70
2023-05-12T12:15:08.416Z,6.22
2023-05-12T12:17:36.452Z,7.13
2023-05-12T12:20:05.410Z,5.28
2023-05-12T12:22:34.489Z,6.53
2023-05-12T12:25:05.173Z,6.50
2023-05-12T12:27:33.163Z,5.97
2023-05-12T12:30:00.934Z,6.10
2023-05-12T12:32:29.216Z,5.10
2023-05-12T12:35:01.973Z,5.18
2023-05-12T12:37:29.994Z,3.92
2023-05-12T12:39:58.037Z,6.35
2023-05-12T12:42:27.327Z,7.60
2023-05-12T12:44:55.160Z,4.78
2023-05-12T12:47:23.359Z,4.18
2023-05-12T12:49:51.642Z,4.10
2023-05-12T12:52:19.741Z,4.43
2023-05-12T12:54:47.449Z,5.18
2023-05-12T12:57:15.481Z,4.30
2023-05-12T12:59:44.574Z,6.90
2023-05-12T13:02:12.678Z,4.82
2023-05-12T13:04:40.711Z,5.68
2023-05-12T13:07:08.725Z,4.50
2023-05-12T13:09:36.631Z,6.32
2023-05-12T13:12:06.044Z,3.95
2023-05-12T13:14:33.873Z,4.30
2023-05-12T13:17:03.634Z,3.97
2023-05-12T13:19:31.626Z,4.45
2023-05-12T13:21:59.435Z,4.45
2023-05-12T13:24:27.265Z,4.90
2023-05-12T13:26:55.282Z,5.82
2023-05-12T13:29:23.251Z,3.90
2023-05-12T13:31:51.254Z,4.28
2023-05-12T13:34:21.286Z,7.20
2023-05-12T13:36:49.150Z,4.68
2023-05-12T13:39:18.988Z,7.15
2023-05-12T13:41:47.567Z,6.07
2023-05-12T13:44:15.579Z,4.93
2023-05-12T13:46:43.625Z,6.53
2023-05-12T13:49:12.733Z,5.82
2023-05-12T13:51:41.918Z,5.35
2023-05-12T13:54:09.777Z,4.82
2023-05-12T13:56:38.010Z,4.57
2023-05-12T13:59:05.757Z,6.72
2023-05-12T14:01:33.852Z,5.05
2023-05-12T14:04:01.855Z,6.55
2023-05-12T14:06:30.125Z,6.75
2023-05-12T14:08:59.497Z,5.90
2023-05-12T14:11:27.413Z,5.00
2023-05-12T14:13:55.161Z,5.72
2023-05-12T14:16:23.123Z,6.82
2023-05-12T14:18:51.040Z,6.38
2023-05-12T14:21:19.328Z,7.10
2023-05-12T14:23:49.301Z,5.25
2023-05-12T14:26:21.372Z,4.32
2023-05-12T14:28:49.487Z,5.43
2023-05-12T14:31:17.866Z,6.88
2023-05-12T14:33:45.787Z,5.45
2023-05-12T14:36:13.638Z,4.18
2023-05-12T14:38:41.626Z,5.25
2023-05-12T14:41:09.702Z,4.38
2023-05-12T14:43:39.025Z,5.85
2023-05-12T14:46:08.533Z,4.57
2023-05-12T14:48:36.553Z,5.28
2023-05-12T14:51:04.827Z,4.15
2023-05-12T14:53:32.979Z,5.18
2023-05-12T14:56:00.749Z,3.25
2023-05-12T14:58:28.644Z,5.18
2023-05-12T15:00:59.162Z,3.78
2023-05-12T15:03:27.162Z,4.57
2023-05-12T15:06:05.551Z,3.25
2023-05-12T15:08:35.143Z,4.85
2023-05-12T15:11:03.126Z,4.63
2023-05-12T15:13:31.628Z,3.42
2023-05-12T15:16:01.282Z,4.85
2023-05-12T15:18:29.179Z,3.47
2023-05-12T15:20:57.016Z,4.38
2023-05-12T15:23:24.965Z,4.50
2023-05-12T15:25:52.790Z,3.72
2023-05-12T15:28:21.252Z,6.22
2023-05-12T15:30:56.069Z,5.43
2023-05-12T15:33:25.584Z,4.35
2023-05-12T15:35:53.419Z,5.57
2023-05-12T15:38:21.445Z,6.28
2023-05-12T15:40:49.207Z,9.15
2023-05-12T15:43:18.047Z,5.07
2023-05-12T15:45:45.975Z,7.80
2023-05-12T15:48:13.869Z,5.40
2023-05-12T15:50:43.130Z,6.22
2023-05-12T15:53:11.117Z,5.75
2023-05-12T15:55:38.866Z,4.22
2023-05-12T15:58:08.280Z,4.00
2023-05-12T16:00:36.413Z,3.72
2023-05-12T16:03:04.467Z,5.28
2023-05-12T16:05:34.045Z,6.15
2023-05-12T16:08:03.289Z,4.57
2023-05-12T16:10:31.172Z,5.80
2023-05-12T16:12:59.017Z,3.67
2023-05-12T16:15:27.276Z,4.93
2023-05-12T16:17:55.093Z,4.63
2023-05-12T16:20:23.102Z,6.63
2023-05-12T16:22:51.963Z,7.70
2023-05-12T16:25:21.321Z,6.47
2023-05-12T16:27:49.695Z,4.97
2023-05-12T16:30:19.875Z,5.45
2023-05-12T16:32:48.195Z,5.63
2023-05-12T16:35:16.520Z,3.97
2023-05-12T16:37:44.471Z,6.82
2023-05-12T16:40:12.786Z,5.72
2023-05-12T16:42:42.736Z,5.55
2023-05-12T16:45:12.111Z,6.90
2023-05-12T16:47:39.953Z,5.75
2023-05-12T16:50:09.505Z,5.88
2023-05-12T16:52:37.474Z,5.28
2023-05-12T16:55:07.246Z,4.53
2023-05-12T16:57:36.372Z,4.88
2023-05-12T17:00:09.527Z,5.30
2023-05-12T17:02:38.837Z,5.35
2023-05-12T17:05:08.003Z,5.45
2023-05-12T17:07:35.990Z,4.30
2023-05-12T17:10:04.500Z,4.82
2023-05-12T17:12:32.781Z,4.85
2023-05-12T17:15:07.672Z,6.47
2023-05-12T17:17:37.615Z,4.30
2023-05-12T17:20:07.507Z,4.63
2023-05-12T17:22:41.123Z,5.85
2023-05-12T17:25:09.881Z,4.90
2023-05-12T17:27:37.908Z,7.13
2023-05-12T17:30:08.206Z,6.53
2023-05-12T17:32:37.730Z,8.35
2023-05-12T17:35:08.076Z,10.30
2023-05-12T17:37:37.198Z,5.63
2023-05-12T17:40:07.884Z,6.15
2023-05-12T17:42:35.899Z,5.47
2023-05-12T17:45:05.034Z,5.80
2023-05-12T17:47:33.108Z,3.97
2023-05-12T17:50:02.439Z,6.05
2023-05-12T17:52:30.484Z,5.38
2023-05-12T17:54:58.350Z,5.95
2023-05-12T17:57:26.912Z,6.93
2023-05-12T17:59:54.708Z,5.13
2023-05-12T18:02:22.913Z,7.47
2023-05-12T18:04:50.770Z,6.53
2023-05-12T18:07:20.242Z,8.13
2023-05-12T18:09:48.163Z,7.65
2023-05-12T18:12:17.950Z,6.80
2023-05-12T18:14:46.969Z,5.90
2023-05-12T18:17:15.359Z,5.50
2023-05-12T18:19:43.252Z,5.18
2023-05-12T18:22:11.155Z,8.30
2023-05-12T18:24:40.949Z,5.00
2023-05-12T18:27:08.815Z,4.85
2023-05-12T18:29:36.689Z,4.75
2023-05-12T18:32:05.276Z,5.85
2023-05-12T18:34:33.189Z,5.45
2023-05-12T18:37:01.665Z,5.30
2023-05-12T18:39:29.514Z,6.35
2023-05-12T18:41:59.316Z,8.07
2023-05-12T18:44:27.131Z,5.82
2023-05-12T18:46:55.209Z,5.68
2023-05-12T18:49:23.649Z,6.78
2023-05-12T18:51:51.470Z,5.93
2023-05-12T18:54:19.350Z,6.35
2023-05-12T18:56:47.978Z,6.25
2023-05-12T18:59:17.647Z,7.50
2023-05-12T19:01:45.580Z,5.40
2023-05-12T19:04:13.337Z,9.02
2023-05-12T19:06:42.747Z,10.20
2023-05-12T19:09:10.697Z,7.82
2023-05-12T19:11:38.506Z,8.50
2023-05-12T19:14:07.003Z,8.23
2023-05-12T19:16:37.827Z,9.15
2023-05-12T19:19:05.972Z,8.70
2023-05-12T19:21:34.035Z,8.18
2023-05-12T19:24:01.908Z,8.00
2023-05-12T19:26:29.946Z,8.02
2023-05-12T19:28:57.842Z,9.15
2023-05-12T19:31:26.041Z,7.05
2023-05-12T19:33:55.208Z,7.50
2023-05-12T19:36:23.089Z,8.57
2023-05-12T19:38:50.996Z,7.97
2023-05-12T19:41:18.854Z,8.00
2023-05-12T19:43:46.704Z,9.63
2023-05-12T19:46:15.113Z,7.72
2023-05-12T19:48:43.072Z,6.53
2023-05-12T19:51:12.670Z,8.80
2023-05-12T19:53:43.051Z,9.57
2023-05-12T19:56:11.117Z,7.90
2023-05-12T19:58:38.919Z,6.85
2023-05-12T20:01:06.932Z,7.72
2023-05-12T20:03:34.841Z,8.65
2023-05-12T20:06:02.760Z,7.72
2023-05-12T20:08:32.095Z,7.85
2023-05-12T20:10:59.902Z,7.63
2023-05-12T20:13:27.650Z,8.60
2023-05-12T20:15:55.646Z,9.35
2023-05-12T20:18:23.680Z,9.77
2023-05-12T20:20:51.710Z,8.27
2023-05-12T20:23:19.588Z,8.60
2023-05-12T20:25:48.767Z,8.57
2023-05-12T20:28:16.748Z,7.57
2023-05-12T20:30:44.871Z,7.78
2023-05-12T20:33:12.607Z,7.57
2023-05-12T20:35:40.506Z,6.95
2023-05-12T20:38:08.418Z,9.60
2023-05-12T20:40:36.380Z,7.82
2023-05-12T20:43:05.473Z,9.48
2023-05-12T20:45:33.993Z,7.90
2023-05-12T20:48:02.761Z,6.55
2023-05-12T20:50:31.002Z,8.88
2023-05-12T20:52:59.285Z,8.02
2023-05-12T20:55:27.126Z,7.72
2023-05-12T20:57:55.278Z,7.57
2023-05-12T21:00:24.640Z,8.93
2023-05-12T21:02:52.581Z,8.55
2023-05-12T21:05:21.117Z,9.18
2023-05-12T21:07:49.294Z,11.02
2023-05-12T21:10:17.366Z,13.38
2023-05-12T21:12:45.350Z,7.50
2023-05-12T21:15:13.666Z,11.77
2023-05-12T21:17:42.814Z,10.43
2023-05-12T21:20:12.300Z,10.70
2023-05-12T21:22:40.671Z,10.60
2023-05-12T21:25:10.245Z,9.75
2023-05-12T21:27:40.325Z,10.23
2023-05-12T21:30:10.411Z,10.73
2023-05-12T21:32:39.499Z,10.23
2023-05-12T21:35:10.088Z,9.70
2023-05-12T21:37:38.287Z,9.77
2023-05-12T21:40:08.227Z,9.50
2023-05-12T21:42:36.230Z,9.18
2023-05-12T21:45:05.756Z,11.23
2023-05-12T21:47:33.849Z,9.43
2023-05-12T21:50:04.222Z,9.40
2023-05-12T21:52:33.502Z,10.60
2023-05-12T21:55:03.119Z,9.88
2023-05-12T21:57:30.988Z,9.05
2023-05-12T22:00:03.747Z,9.23
2023-05-12T22:02:37.334Z,10.82
2023-05-12T22:05:07.925Z,8.43
2023-05-12T22:07:37.074Z,10.30
2023-05-12T22:10:06.111Z,10.25
2023-05-12T22:12:34.241Z,9.20
2023-05-12T22:15:02.343Z,10.40
2023-05-12T22:17:30.105Z,8.85
2023-05-12T22:19:58.023Z,9.82
2023-05-12T22:22:26.269Z,7.85
2023-05-12T22:24:55.882Z,7.75
2023-05-12T22:27:23.965Z,9.15
2023-05-12T22:29:51.869Z,11.35
2023-05-12T22:32:19.686Z,11.27
2023-05-12T22:34:47.640Z,10.82
2023-05-12T22:37:15.681Z,9.65
2023-05-12T22:39:43.677Z,10.60
2023-05-12T22:42:12.820Z,10.93
2023-05-12T22:44:40.725Z,8.93
2023-05-12T22:47:08.612Z,8.50
2023-05-12T22:49:36.566Z,10.30
2023-05-12T22:52:05.851Z,12.65
2023-05-12T22:54:33.885Z,10.27
2023-05-12T22:57:01.704Z,8.60
2023-05-12T22:59:30.814Z,10.67
2023-05-12T23:01:58.566Z,7.82
2023-05-12T23:04:26.661Z,13.40
2023-05-12T23:06:54.597Z,11.00
2023-05-12T23:09:22.430Z,8.43
2023-05-12T23:11:50.429Z,8.30
2023-05-12T23:14:18.335Z,8.85
2023-05-12T23:16:48.021Z,11.93
2023-05-12T23:19:16.119Z,9.88
2023-05-12T23:21:43.964Z,10.23
2023-05-12T23:24:11.851Z,11.45
2023-05-12T23:26:40.390Z,8.60
2023-05-12T23:29:08.414Z,9.48
2023-05-12T23:31:36.234Z,9.50
2023-05-12T23:34:05.550Z,10.57
2023-05-12T23:36:33.663Z,8.45
2023-05-12T23:39:01.546Z,7.93
2023-05-12T23:41:31.643Z,11.57
2023-05-12T23:43:59.558Z,13.27
2023-05-12T23:46:27.464Z,9.80
2023-05-12T23:48:56.451Z,9.30
2023-05-12T23:51:25.879Z,9.75
2023-05-12T23:53:53.726Z,10.57
2023-05-12T23:56:22.293Z,9.70
2023-05-12T23:58:50.264Z,7.78
